Terminal Aerodrome Forecast
Issued by NWS

Home | Current Version | Previous Version | Text Only | Print | Product List | Glossary On
Versions: 1 2 3 4 5 6 7 8 9 10 11 12 13 14 15 16 17 18 19 20 21 22 23
000
FTUS42 KGSP 171100
TAFGMU
TAF
KGMU 171135Z 1712/1812 04008KT P6SM BKN250
     FM171400 05012G21KT P6SM BKN250
     FM171800 08010KT P6SM BKN250
     FM180300 04006KT P6SM SCT040 BKN250
     FM180700 04008KT P6SM BKN040=

USA.gov is the U.S. government's official web portal to all federal, state and local government web resources and services.